Página principal
METAR-TAF:

METAR-TAF

Aeroportos :

Quinhagak, Alasca, Estados Unidos

latitude: 59-45-18N, longitude: 161-50-43W, altura: 13 m

Observação actual do tempo

O boletim foi feito há 25 minutos, às 09:56 UTC
Vento 7 kt de su-sudeste
Temperatura 7°C
Humidade 100%
Pressão 1024 hPa
Visibilidade: 0.4 km
Encobertoa uma altura de 300 ft
nevoeiro

METAR: PAQH 150956Z AUTO 16007KT 1/4SM FG OVC003 07/07 A3025 RMK AO2 SLP243 T00720072

Hora: 02:21 (10:21 UTC)


TAF: em falta

Observações e previsões do tempo de mais de 4000 aeroportos (mensagens METAR e TAF).

As estações disponíveis são os pontos amarelos e vermelhos sobre o mapa.

Mova o rato sobre o mapa para ver o nome da estação.

Depois clique no ponto para visualizar as observações e previsões meteorológicas.

Para alterar o mapa : clique nos botões verdes com uma cruz preta para aumentar o zoom; no botão verde com uma pitada de zoom; ou nas setas verdes para mapas adjacentes.


METAR-TAF: